createdAt,value
2018-12-10T00:00:13.311Z,2.50
2018-12-10T00:02:39.790Z,2.60
2018-12-10T00:05:07.429Z,3.13
2018-12-10T00:07:34.152Z,2.77
2018-12-10T00:10:02.597Z,2.80
2018-12-10T00:12:29.574Z,3.10
2018-12-10T00:14:56.134Z,3.23
2018-12-10T00:17:22.734Z,2.33
2018-12-10T00:19:49.352Z,2.30
2018-12-10T00:22:15.919Z,3.00
2018-12-10T00:24:42.452Z,2.40
2018-12-10T00:27:08.974Z,4.07
2018-12-10T00:29:35.935Z,3.17
2018-12-10T00:32:02.647Z,3.10
2018-12-10T00:34:29.106Z,3.37
2018-12-10T00:36:55.711Z,2.60
2018-12-10T00:39:24.817Z,2.67
2018-12-10T00:41:51.410Z,2.27
2018-12-10T00:44:18.682Z,1.97
2018-12-10T00:46:45.370Z,2.40
2018-12-10T00:49:12.066Z,2.40
2018-12-10T00:51:38.825Z,2.57
2018-12-10T00:54:05.418Z,2.20
2018-12-10T00:56:31.990Z,2.60
2018-12-10T00:58:58.594Z,2.20
2018-12-10T01:01:25.298Z,2.67
2018-12-10T01:03:52.604Z,3.33
2018-12-10T01:06:19.260Z,2.60
2018-12-10T01:08:45.758Z,2.87
2018-12-10T01:11:13.031Z,2.00
2018-12-10T01:13:39.544Z,3.10
2018-12-10T01:16:06.842Z,3.13
2018-12-10T01:18:33.350Z,3.70
2018-12-10T01:20:59.729Z,2.70
2018-12-10T01:23:26.215Z,2.23
2018-12-10T01:25:52.883Z,1.73
2018-12-10T01:28:19.383Z,4.00
2018-12-10T01:30:45.979Z,2.03
2018-12-10T01:33:12.567Z,2.80
2018-12-10T01:35:39.250Z,2.53
2018-12-10T01:38:06.043Z,2.60
2018-12-10T01:40:32.732Z,2.23
2018-12-10T01:43:00.227Z,2.33
2018-12-10T01:45:29.078Z,2.90
2018-12-10T01:47:55.667Z,2.97
2018-12-10T01:50:22.941Z,2.60
2018-12-10T01:52:49.426Z,2.60
2018-12-10T01:55:16.037Z,2.53
2018-12-10T01:57:43.646Z,2.00
2018-12-10T02:00:11.137Z,2.00
2018-12-10T02:02:37.626Z,2.00
2018-12-10T02:05:05.009Z,1.60
2018-12-10T02:07:32.206Z,2.60
2018-12-10T02:09:59.486Z,2.07
2018-12-10T02:12:30.621Z,1.70
2018-12-10T02:14:57.191Z,2.30
2018-12-10T02:17:24.485Z,2.20
2018-12-10T02:19:51.951Z,1.53
2018-12-10T02:22:18.528Z,1.90
2018-12-10T02:24:45.095Z,2.37
2018-12-10T02:27:11.789Z,1.70
2018-12-10T02:29:38.442Z,2.27
2018-12-10T02:32:05.136Z,1.60
2018-12-10T02:34:31.728Z,2.20
2018-12-10T02:36:58.315Z,1.80
2018-12-10T02:39:24.939Z,1.63
2018-12-10T02:41:52.199Z,2.23
2018-12-10T02:44:20.402Z,2.83
2018-12-10T02:46:47.897Z,1.80
2018-12-10T02:49:14.677Z,1.90
2018-12-10T02:51:41.647Z,2.20
2018-12-10T02:54:08.359Z,2.60
2018-12-10T02:56:35.453Z,2.33
2018-12-10T02:59:02.296Z,2.07
2018-12-10T03:01:28.959Z,1.93
2018-12-10T03:03:56.249Z,2.23
2018-12-10T03:06:23.043Z,3.67
2018-12-10T03:08:49.691Z,1.83
2018-12-10T03:11:16.276Z,2.50
2018-12-10T03:13:42.869Z,2.20
2018-12-10T03:16:09.441Z,1.90
2018-12-10T03:18:37.041Z,2.40
2018-12-10T03:21:04.115Z,1.90
2018-12-10T03:23:30.709Z,1.73
2018-12-10T03:25:57.875Z,1.97
2018-12-10T03:28:24.462Z,2.10
2018-12-10T03:30:51.092Z,1.20
2018-12-10T03:33:17.889Z,1.70
2018-12-10T03:35:44.753Z,1.93
2018-12-10T03:38:11.350Z,1.40
2018-12-10T03:40:39.511Z,1.60
2018-12-10T03:43:07.341Z,1.80
2018-12-10T03:45:33.935Z,2.10
2018-12-10T03:48:00.534Z,1.50
2018-12-10T03:50:27.197Z,1.50
2018-12-10T03:52:54.010Z,2.67
2018-12-10T03:55:20.670Z,2.00
2018-12-10T03:57:48.878Z,2.17
2018-12-10T04:00:15.599Z,2.23
2018-12-10T04:05:37.037Z,2.67
2018-12-10T04:08:03.744Z,2.20
2018-12-10T04:10:31.299Z,2.13
2018-12-10T04:12:57.890Z,2.03
2018-12-10T04:15:24.531Z,2.30
2018-12-10T04:17:51.037Z,2.03
2018-12-10T04:20:17.846Z,2.90
2018-12-10T04:22:44.847Z,2.90
2018-12-10T04:25:11.414Z,2.90
2018-12-10T04:27:38.059Z,2.30
2018-12-10T04:30:04.921Z,2.40
2018-12-10T04:32:31.518Z,3.60
2018-12-10T04:34:58.282Z,2.23
2018-12-10T04:37:24.879Z,2.30
2018-12-10T04:39:51.443Z,2.47
2018-12-10T04:42:18.121Z,2.43
2018-12-10T04:44:44.690Z,2.53
2018-12-10T04:47:12.277Z,2.80
2018-12-10T04:49:38.854Z,3.07
2018-12-10T04:52:06.256Z,3.30
2018-12-10T04:54:32.831Z,2.77
2018-12-10T04:57:01.103Z,2.60
2018-12-10T04:59:27.798Z,3.33
2018-12-10T05:01:55.184Z,3.00
2018-12-10T05:04:23.886Z,2.83
2018-12-10T05:06:51.454Z,2.23
2018-12-10T05:09:19.079Z,2.13
2018-12-10T05:11:45.642Z,2.30
2018-12-10T05:14:12.231Z,2.70
2018-12-10T05:16:39.395Z,3.20
2018-12-10T05:19:06.692Z,3.07
2018-12-10T05:21:33.244Z,3.13
2018-12-10T05:24:00.783Z,2.87
2018-12-10T05:26:28.050Z,2.80
2018-12-10T05:28:56.253Z,2.70
2018-12-10T05:31:22.711Z,2.50
2018-12-10T05:33:50.892Z,3.07
2018-12-10T05:36:17.357Z,3.00
2018-12-10T05:38:44.164Z,2.53
2018-12-10T05:41:10.747Z,2.53
2018-12-10T05:43:37.466Z,2.33
2018-12-10T05:46:04.948Z,2.40
2018-12-10T05:48:31.657Z,2.17
2018-12-10T05:50:58.221Z,2.47
2018-12-10T05:53:24.942Z,2.90
2018-12-10T05:55:51.493Z,2.20
2018-12-10T05:58:19.213Z,2.30
2018-12-10T06:00:45.779Z,3.30
2018-12-10T06:03:12.494Z,4.30
2018-12-10T06:05:39.070Z,2.77
2018-12-10T06:08:06.748Z,3.17
2018-12-10T06:10:34.988Z,1.90
2018-12-10T06:13:01.548Z,3.10
2018-12-10T06:15:28.158Z,3.20
2018-12-10T06:17:54.732Z,3.27
2018-12-10T06:20:21.230Z,2.20
2018-12-10T06:22:47.713Z,2.90
2018-12-10T06:25:14.231Z,3.03
2018-12-10T06:27:40.932Z,3.27
2018-12-10T06:30:07.534Z,2.90
2018-12-10T06:32:34.019Z,2.70
2018-12-10T06:35:00.637Z,2.20
2018-12-10T06:37:27.104Z,2.83
2018-12-10T06:39:53.729Z,2.50
2018-12-10T06:42:20.210Z,3.20
2018-12-10T06:44:46.624Z,2.83
2018-12-10T06:47:13.203Z,2.50
2018-12-10T06:49:39.740Z,2.60
2018-12-10T06:52:06.194Z,3.27
2018-12-10T06:54:32.681Z,2.13
2018-12-10T06:56:59.154Z,2.70
2018-12-10T06:59:25.669Z,2.20
2018-12-10T07:01:52.286Z,3.17
2018-12-10T07:04:18.739Z,3.00
2018-12-10T07:06:45.235Z,2.40
2018-12-10T07:09:11.769Z,2.57
2018-12-10T07:11:38.279Z,2.80
2018-12-10T07:14:05.240Z,2.60
2018-12-10T07:16:31.904Z,2.50
2018-12-10T07:18:58.784Z,3.17
2018-12-10T07:21:25.319Z,2.53
2018-12-10T07:23:51.795Z,3.47
2018-12-10T07:26:18.393Z,2.83
2018-12-10T07:28:44.939Z,2.27
2018-12-10T07:31:11.427Z,2.57
2018-12-10T07:33:37.913Z,2.77
2018-12-10T07:36:04.306Z,3.37
2018-12-10T07:38:30.768Z,3.53
2018-12-10T07:40:57.285Z,2.80
2018-12-10T07:43:23.743Z,3.10
2018-12-10T07:45:50.218Z,2.93
2018-12-10T07:48:16.614Z,2.80
2018-12-10T07:50:43.100Z,2.50
2018-12-10T07:53:09.590Z,3.83
2018-12-10T07:55:36.060Z,2.60
2018-12-10T07:58:02.571Z,3.70
2018-12-10T08:00:29.111Z,2.60
2018-12-10T08:02:55.606Z,2.60
2018-12-10T08:05:22.079Z,3.03
2018-12-10T08:07:48.586Z,2.53
2018-12-10T08:10:15.450Z,2.50
2018-12-10T08:12:42.157Z,3.20
2018-12-10T08:15:08.963Z,4.13
2018-12-10T08:17:36.269Z,3.03
2018-12-10T08:20:03.469Z,3.43
2018-12-10T08:22:30.076Z,3.50
2018-12-10T08:24:56.542Z,2.50
2018-12-10T08:27:23.047Z,3.00
2018-12-10T08:29:49.531Z,2.37
2018-12-10T08:32:16.224Z,2.60
2018-12-10T08:34:42.933Z,2.80
2018-12-10T08:37:09.499Z,2.87
2018-12-10T08:39:36.106Z,3.13
2018-12-10T08:42:02.982Z,2.40
2018-12-10T08:44:29.586Z,3.03
2018-12-10T08:46:56.058Z,2.43
2018-12-10T08:49:22.579Z,2.80
2018-12-10T08:51:49.261Z,2.57
2018-12-10T08:54:15.766Z,3.47
2018-12-10T08:56:42.237Z,3.13
2018-12-10T08:59:08.828Z,2.30
2018-12-10T09:01:35.502Z,2.93
2018-12-10T09:04:02.150Z,2.30
2018-12-10T09:06:28.715Z,3.10
2018-12-10T09:08:56.117Z,2.47
2018-12-10T09:11:22.790Z,3.80
2018-12-10T09:13:49.434Z,2.77
2018-12-10T09:16:15.882Z,2.73
2018-12-10T09:18:42.695Z,3.30
2018-12-10T09:21:09.158Z,2.77
2018-12-10T09:23:35.886Z,2.63
2018-12-10T09:26:02.470Z,2.00
2018-12-10T09:28:28.975Z,2.23
2018-12-10T09:30:55.541Z,2.80
2018-12-10T09:33:22.015Z,2.70
2018-12-10T09:35:48.647Z,2.23
2018-12-10T09:38:15.114Z,2.70
2018-12-10T09:40:41.872Z,2.13
2018-12-10T09:43:08.338Z,2.20
2018-12-10T09:45:34.843Z,1.83
2018-12-10T09:48:01.303Z,1.90
2018-12-10T09:50:27.911Z,2.70
2018-12-10T09:52:54.394Z,2.00
2018-12-10T09:55:20.878Z,2.30
2018-12-10T09:57:47.446Z,2.50
2018-12-10T10:00:14.054Z,2.00
2018-12-10T10:02:40.630Z,2.63
2018-12-10T10:05:07.346Z,2.47
2018-12-10T10:07:33.871Z,2.80
2018-12-10T10:10:00.386Z,1.83
2018-12-10T10:12:27.090Z,2.10
2018-12-10T10:14:53.873Z,1.70
2018-12-10T10:17:20.602Z,2.43
2018-12-10T10:19:47.105Z,1.80
2018-12-10T10:22:13.573Z,1.87
2018-12-10T10:24:40.167Z,1.63
2018-12-10T10:27:06.640Z,1.40
2018-12-10T10:29:33.250Z,1.80
2018-12-10T10:31:59.607Z,1.20
2018-12-10T10:34:26.104Z,1.30
2018-12-10T10:36:52.577Z,1.70
2018-12-10T10:39:19.211Z,1.70
2018-12-10T10:41:45.787Z,1.53
2018-12-10T10:44:12.289Z,1.53
2018-12-10T10:46:38.877Z,1.70
2018-12-10T10:49:05.353Z,2.10
2018-12-10T10:51:31.861Z,1.97
2018-12-10T10:53:58.327Z,1.40
2018-12-10T10:56:24.932Z,1.70
2018-12-10T10:58:51.496Z,1.30
2018-12-10T11:01:22.485Z,1.53
2018-12-10T11:03:49.161Z,1.37
2018-12-10T11:06:15.902Z,1.43
2018-12-10T11:08:42.399Z,1.67
2018-12-10T11:11:08.894Z,1.80
2018-12-10T11:13:35.368Z,1.63
2018-12-10T11:16:01.875Z,1.80
2018-12-10T11:18:28.511Z,1.30
2018-12-10T11:20:55.105Z,1.60
2018-12-10T11:23:21.634Z,1.20
2018-12-10T11:25:48.102Z,1.60
2018-12-10T11:28:14.755Z,1.13
2018-12-10T11:30:41.548Z,1.20
2018-12-10T11:33:08.016Z,1.33
2018-12-10T11:35:34.748Z,1.47
2018-12-10T11:38:01.234Z,1.30
2018-12-10T11:40:27.766Z,1.73
2018-12-10T11:42:54.273Z,1.40
2018-12-10T11:45:20.725Z,1.43
2018-12-10T11:47:47.341Z,2.37
2018-12-10T11:50:14.040Z,1.50
2018-12-10T11:52:40.799Z,1.40
2018-12-10T11:55:07.546Z,1.77
2018-12-10T11:57:34.515Z,1.67
2018-12-10T12:00:01.005Z,1.43
2018-12-10T12:02:29.865Z,2.00
2018-12-10T12:04:56.147Z,1.43
2018-12-10T12:07:22.770Z,1.60
2018-12-10T12:09:50.342Z,1.60
2018-12-10T12:12:17.090Z,2.10
2018-12-10T12:14:43.866Z,1.80
2018-12-10T12:17:10.481Z,1.60
2018-12-10T12:19:36.864Z,1.90
2018-12-10T12:22:05.109Z,2.13
2018-12-10T12:24:32.013Z,1.70
2018-12-10T12:26:58.731Z,2.53
2018-12-10T12:29:25.342Z,2.10
2018-12-10T12:31:51.924Z,2.33
2018-12-10T12:34:18.534Z,1.80
2018-12-10T12:36:45.715Z,1.93
2018-12-10T12:39:12.339Z,1.57
2018-12-10T12:41:39.216Z,2.63
2018-12-10T12:44:05.809Z,2.00
2018-12-10T12:46:32.314Z,1.90
2018-12-10T12:48:59.291Z,2.87
2018-12-10T12:51:26.112Z,3.00
2018-12-10T12:53:52.642Z,2.53
2018-12-10T12:56:19.166Z,2.43
2018-12-10T12:58:45.643Z,2.53
2018-12-10T13:01:12.300Z,2.53
2018-12-10T13:03:38.850Z,2.20
2018-12-10T13:06:06.993Z,2.73
2018-12-10T13:08:34.159Z,2.30
2018-12-10T13:11:01.960Z,2.93
2018-12-10T13:13:28.459Z,2.07
2018-12-10T13:15:55.757Z,2.63
2018-12-10T13:18:22.523Z,2.40
2018-12-10T13:20:49.147Z,1.93
2018-12-10T13:23:15.625Z,1.83
2018-12-10T13:25:42.116Z,2.50
2018-12-10T13:28:08.726Z,2.10
2018-12-10T13:30:35.445Z,2.50
2018-12-10T13:33:02.382Z,2.43
2018-12-10T13:35:29.118Z,1.90
2018-12-10T13:37:57.269Z,2.10
2018-12-10T13:40:23.887Z,1.80
2018-12-10T13:42:50.469Z,1.63
2018-12-10T13:45:17.005Z,1.90
2018-12-10T13:47:43.639Z,1.60
2018-12-10T13:50:10.453Z,1.60
2018-12-10T13:52:36.834Z,1.97
2018-12-10T13:55:04.094Z,1.43
2018-12-10T13:57:30.656Z,1.30
2018-12-10T13:59:57.283Z,1.57
2018-12-10T14:02:23.978Z,1.50
2018-12-10T14:04:51.983Z,1.10
2018-12-10T14:07:18.634Z,1.60
2018-12-10T14:09:45.329Z,1.23
2018-12-10T14:12:12.469Z,1.67
2018-12-10T14:14:38.925Z,1.20
2018-12-10T14:17:05.467Z,1.17
2018-12-10T14:19:32.016Z,1.20
2018-12-10T14:21:58.760Z,1.07
2018-12-10T14:24:25.289Z,1.17
2018-12-10T14:26:52.257Z,1.50
2018-12-10T14:29:19.836Z,1.40
2018-12-10T14:31:46.585Z,1.20
2018-12-10T14:34:21.024Z,1.37
2018-12-10T14:36:47.907Z,1.33
2018-12-10T14:39:14.873Z,1.10
2018-12-10T14:41:41.605Z,1.50
2018-12-10T14:44:08.289Z,1.30
2018-12-10T14:46:34.896Z,1.03
2018-12-10T14:49:01.430Z,1.80
2018-12-10T14:51:28.046Z,1.90
2018-12-10T14:53:54.664Z,1.70
2018-12-10T14:56:21.277Z,2.40
2018-12-10T14:58:47.811Z,2.33
2018-12-10T15:01:14.395Z,1.80
2018-12-10T15:03:41.002Z,1.50
2018-12-10T15:06:07.604Z,2.07
2018-12-10T15:08:34.316Z,1.60
2018-12-10T15:11:00.925Z,1.50
2018-12-10T15:13:27.425Z,1.80
2018-12-10T15:15:53.893Z,1.90
2018-12-10T15:18:20.402Z,1.80
2018-12-10T15:20:47.984Z,1.73
2018-12-10T15:23:14.658Z,1.80
2018-12-10T15:25:41.271Z,1.40
2018-12-10T15:28:08.004Z,1.63
2018-12-10T15:30:34.687Z,3.87
2018-12-10T15:33:01.425Z,2.00
2018-12-10T15:35:29.634Z,2.33
2018-12-10T15:37:56.347Z,2.20
2018-12-10T15:40:23.835Z,2.40
2018-12-10T15:42:50.437Z,3.43
2018-12-10T15:45:17.414Z,1.77
2018-12-10T15:47:44.846Z,2.63
2018-12-10T15:50:11.682Z,2.17
2018-12-10T15:52:39.141Z,1.70
2018-12-10T15:55:05.933Z,2.20
2018-12-10T15:57:33.266Z,2.73
2018-12-10T16:00:00.142Z,3.03
2018-12-10T16:02:26.771Z,3.17
2018-12-10T16:04:53.338Z,2.30
2018-12-10T16:07:20.150Z,2.37
2018-12-10T16:09:46.526Z,2.80
2018-12-10T16:12:13.118Z,2.00
2018-12-10T16:14:39.629Z,2.30
2018-12-10T16:17:06.235Z,2.70
2018-12-10T16:19:33.983Z,2.50
2018-12-10T16:22:00.765Z,3.20
2018-12-10T16:24:27.378Z,2.47
2018-12-10T16:26:53.844Z,2.53
2018-12-10T16:29:21.883Z,3.03
2018-12-10T16:31:48.600Z,2.73
2018-12-10T16:34:15.205Z,3.00
2018-12-10T16:36:42.775Z,2.87
2018-12-10T16:39:09.570Z,2.33
2018-12-10T16:41:36.281Z,3.60
2018-12-10T16:44:03.197Z,3.17
2018-12-10T16:46:29.711Z,2.33
2018-12-10T16:48:56.962Z,3.57
2018-12-10T16:51:23.531Z,2.30
2018-12-10T16:53:50.134Z,2.43
2018-12-10T16:56:16.747Z,2.00
2018-12-10T16:58:43.305Z,1.90
2018-12-10T17:01:09.911Z,2.30
2018-12-10T17:03:36.630Z,2.23
2018-12-10T17:06:03.978Z,2.60
2018-12-10T17:08:30.653Z,2.13
2018-12-10T17:10:57.354Z,2.80
2018-12-10T17:13:24.722Z,2.10
2018-12-10T17:15:51.786Z,1.93
2018-12-10T17:18:20.023Z,2.10
2018-12-10T17:20:47.015Z,2.27
2018-12-10T17:23:14.543Z,2.83
2018-12-10T17:25:41.129Z,3.10
2018-12-10T17:28:08.542Z,2.90
2018-12-10T17:30:35.230Z,2.03
2018-12-10T17:33:01.842Z,2.60
2018-12-10T17:35:28.452Z,2.20
2018-12-10T17:37:54.922Z,2.57
2018-12-10T17:40:21.644Z,1.73
2018-12-10T17:42:48.189Z,2.37
2018-12-10T17:45:14.856Z,2.60
2018-12-10T17:47:41.423Z,2.10
2018-12-10T17:50:10.202Z,2.70
2018-12-10T17:52:36.914Z,2.60
2018-12-10T17:55:06.047Z,2.43
2018-12-10T17:57:32.622Z,2.97
2018-12-10T17:59:59.947Z,3.17
2018-12-10T18:02:27.718Z,2.20
2018-12-10T18:04:55.333Z,2.83
2018-12-10T18:07:22.378Z,3.57
2018-12-10T18:09:48.829Z,2.40
2018-12-10T18:12:15.458Z,3.20
2018-12-10T18:14:41.963Z,2.77
2018-12-10T18:17:08.489Z,2.40
2018-12-10T18:19:35.055Z,2.90
2018-12-10T18:22:01.562Z,3.13
2018-12-10T18:24:28.067Z,3.10
2018-12-10T18:26:54.708Z,2.87
2018-12-10T18:29:21.173Z,3.03
2018-12-10T18:31:47.932Z,2.70
2018-12-10T18:34:14.485Z,3.27
2018-12-10T18:36:40.959Z,3.40
2018-12-10T18:39:07.838Z,3.27
2018-12-10T18:41:34.622Z,3.20
2018-12-10T18:44:01.206Z,4.53
2018-12-10T18:46:27.836Z,3.30
2018-12-10T18:48:54.445Z,3.17
2018-12-10T18:51:20.914Z,3.57
2018-12-10T18:53:47.508Z,3.20
2018-12-10T18:56:14.038Z,2.43
2018-12-10T18:58:40.494Z,2.30
2018-12-10T19:01:06.991Z,2.53
2018-12-10T19:03:33.666Z,3.30
2018-12-10T19:08:33.516Z,4.30
2018-12-10T19:10:59.990Z,3.07
2018-12-10T19:13:26.506Z,3.07
2018-12-10T19:15:53.399Z,3.53
2018-12-10T19:18:19.986Z,3.33
2018-12-10T19:20:46.465Z,3.30
2018-12-10T19:23:13.065Z,3.10
2018-12-10T19:25:39.793Z,3.43
2018-12-10T19:28:06.476Z,4.20
2018-12-10T19:30:33.750Z,3.83
2018-12-10T19:33:00.368Z,3.10
2018-12-10T19:35:26.850Z,3.50
2018-12-10T19:37:53.484Z,3.63
2018-12-10T19:40:20.093Z,3.60
2018-12-10T19:42:46.565Z,3.43
2018-12-10T19:45:13.154Z,2.93
2018-12-10T19:47:39.762Z,3.30
2018-12-10T19:50:06.592Z,3.67
2018-12-10T19:52:33.281Z,3.23
2018-12-10T19:54:59.956Z,3.47
2018-12-10T19:57:26.664Z,3.67
2018-12-10T19:59:53.141Z,3.57
2018-12-10T20:02:20.214Z,4.37
2018-12-10T20:04:46.882Z,3.80
2018-12-10T20:07:13.434Z,3.90
2018-12-10T20:09:40.008Z,3.27
2018-12-10T20:12:06.542Z,3.17
2018-12-10T20:14:33.006Z,2.80
2018-12-10T20:16:59.648Z,3.90
2018-12-10T20:19:26.200Z,2.90
2018-12-10T20:21:52.718Z,4.00
2018-12-10T20:24:19.513Z,4.43
2018-12-10T20:26:46.240Z,4.00
2018-12-10T20:29:12.828Z,3.30
2018-12-10T20:31:39.373Z,4.17
2018-12-10T20:34:05.971Z,3.70
2018-12-10T20:36:32.480Z,3.90
2018-12-10T20:38:59.144Z,3.50
2018-12-10T20:41:25.679Z,5.13
2018-12-10T20:43:52.146Z,4.40
2018-12-10T20:46:18.759Z,3.93
2018-12-10T20:48:45.326Z,4.70
2018-12-10T20:51:11.977Z,4.80
2018-12-10T20:53:38.590Z,3.57
2018-12-10T20:56:05.268Z,4.17
2018-12-10T20:58:31.837Z,3.67
2018-12-10T21:00:58.391Z,4.77
2018-12-10T21:03:24.917Z,4.47
2018-12-10T21:05:57.512Z,4.83
2018-12-10T21:08:24.266Z,3.70
2018-12-10T21:10:51.066Z,4.10
2018-12-10T21:13:17.785Z,4.57
2018-12-10T21:15:44.691Z,4.30
2018-12-10T21:18:11.300Z,4.20
2018-12-10T21:20:38.617Z,3.47
2018-12-10T21:23:05.231Z,4.30
2018-12-10T21:25:31.758Z,3.80
2018-12-10T21:27:58.223Z,3.97
2018-12-10T21:30:24.807Z,3.67
2018-12-10T21:32:51.357Z,4.10
2018-12-10T21:35:17.866Z,4.50
2018-12-10T21:37:44.298Z,3.73
2018-12-10T21:40:10.954Z,3.83
2018-12-10T21:42:38.970Z,3.60
2018-12-10T21:45:06.414Z,4.30
2018-12-10T21:47:33.533Z,3.10
2018-12-10T21:50:00.122Z,3.20
2018-12-10T21:52:28.298Z,4.33
2018-12-10T21:54:54.962Z,3.63
2018-12-10T21:57:21.562Z,4.30
2018-12-10T21:59:48.927Z,4.60
2018-12-10T22:02:15.666Z,4.40
2018-12-10T22:04:42.502Z,3.87
2018-12-10T22:07:09.321Z,3.83
2018-12-10T22:09:35.781Z,3.80
2018-12-10T22:12:02.619Z,4.53
2018-12-10T22:14:30.289Z,4.00
2018-12-10T22:16:57.104Z,3.43
2018-12-10T22:19:23.594Z,3.70
2018-12-10T22:21:50.179Z,3.40
2018-12-10T22:24:16.685Z,3.47
2018-12-10T22:26:43.215Z,4.13
2018-12-10T22:29:10.137Z,4.20
2018-12-10T22:31:36.541Z,3.60
2018-12-10T22:34:03.244Z,4.05
2018-12-10T22:36:29.852Z,4.07
2018-12-10T22:38:56.536Z,3.53
2018-12-10T22:41:23.201Z,4.23
2018-12-10T22:43:49.833Z,2.97
2018-12-10T22:46:16.541Z,4.03
2018-12-10T22:48:43.399Z,3.87
2018-12-10T22:51:09.878Z,4.27
2018-12-10T22:53:36.638Z,4.00
2018-12-10T22:56:04.147Z,4.17
2018-12-10T22:58:30.835Z,4.23
2018-12-10T23:00:57.657Z,4.40
2018-12-10T23:03:24.130Z,4.80
2018-12-10T23:05:50.638Z,4.40
2018-12-10T23:08:17.389Z,3.60
2018-12-10T23:10:43.915Z,4.40
2018-12-10T23:13:10.420Z,3.70
2018-12-10T23:15:36.843Z,4.10
2018-12-10T23:18:03.422Z,4.10
2018-12-10T23:20:29.933Z,4.50
2018-12-10T23:22:56.418Z,5.10
2018-12-10T23:25:23.028Z,3.93
2018-12-10T23:27:49.502Z,4.37
2018-12-10T23:30:16.119Z,3.47
2018-12-10T23:32:42.591Z,4.30
2018-12-10T23:35:09.125Z,4.07
2018-12-10T23:37:35.715Z,3.63
2018-12-10T23:40:02.946Z,4.00
2018-12-10T23:42:29.436Z,3.73
2018-12-10T23:44:56.229Z,4.07
2018-12-10T23:47:22.891Z,4.63
2018-12-10T23:49:49.494Z,3.90
2018-12-10T23:52:16.207Z,3.80
2018-12-10T23:54:42.693Z,4.30
2018-12-10T23:57:09.153Z,4.10
2018-12-10T23:59:35.748Z,3.70
